Nemaha, Iowa
Current Conditions -  °F | °C
As of 1:55 PM on Tuesday 21 Oct 2014 (Local Time) from KSLB Reporting Station
Clear Clear  
Wind Chill: 68°   Ceiling: Unl
Heat Index: 68°   Visibility: 10mi
Dew Point: 41°   Wind: 12mph
Humidity: 37%   Direction: 160°SSE
Pressure: 30.09"   Gusts: 17mph
Location:  42.52°N, 95.09°W
Report Text: KSLB 211855Z AUTO 16010G15KT 140V200 10SM CLR 20/05 A3009 RMK AO2
Loading
Personal Weather Stations






























Interactive Weather Map
Tropical Storm Tracking
New forecast layout! Learn more

10-Day Weather Forecast

Advertisements
Track Severe Weather on mobile